sensor_id;sensor_type;location;lat;lon;timestamp;temperature;humidity
9915;DHT22;4996;48.746;9.174;2024-03-25T00:01:45;6.30;99.90
9915;DHT22;4996;48.746;9.174;2024-03-25T00:04:11;6.20;99.90
9915;DHT22;4996;48.746;9.174;2024-03-25T00:06:36;6.30;99.90
9915;DHT22;4996;48.746;9.174;2024-03-25T00:09:03;6.30;99.90
9915;DHT22;4996;48.746;9.174;2024-03-25T00:11:29;6.40;99.90
9915;DHT22;4996;48.746;9.174;2024-03-25T00:13:54;6.30;99.90
9915;DHT22;4996;48.746;9.174;2024-03-25T00:16:20;6.30;99.90
9915;DHT22;4996;48.746;9.174;2024-03-25T00:18:46;6.30;99.90
9915;DHT22;4996;48.746;9.174;2024-03-25T00:21:11;6.50;99.90
9915;DHT22;4996;48.746;9.174;2024-03-25T00:23:37;6.40;99.90
9915;DHT22;4996;48.746;9.174;2024-03-25T00:26:02;6.40;99.90
9915;DHT22;4996;48.746;9.174;2024-03-25T00:28:28;6.50;99.90
9915;DHT22;4996;48.746;9.174;2024-03-25T00:30:53;6.40;99.90
9915;DHT22;4996;48.746;9.174;2024-03-25T00:33:19;6.40;99.90
9915;DHT22;4996;48.746;9.174;2024-03-25T00:35:44;6.50;99.90
9915;DHT22;4996;48.746;9.174;2024-03-25T00:38:11;6.30;99.90
9915;DHT22;4996;48.746;9.174;2024-03-25T00:40:36;6.30;99.90
9915;DHT22;4996;48.746;9.174;2024-03-25T00:43:02;6.30;99.90
9915;DHT22;4996;48.746;9.174;2024-03-25T00:45:28;6.10;99.90
9915;DHT22;4996;48.746;9.174;2024-03-25T00:47:56;6.10;99.90
9915;DHT22;4996;48.746;9.174;2024-03-25T00:50:22;6.20;99.90
9915;DHT22;4996;48.746;9.174;2024-03-25T00:52:47;6.30;99.90
9915;DHT22;4996;48.746;9.174;2024-03-25T00:55:13;6.40;99.90
9915;DHT22;4996;48.746;9.174;2024-03-25T00:57:39;6.40;99.90
9915;DHT22;4996;48.746;9.174;2024-03-25T01:00:05;6.40;99.90
9915;DHT22;4996;48.746;9.174;2024-03-25T01:02:31;6.50;99.90
9915;DHT22;4996;48.746;9.174;2024-03-25T01:04:56;6.50;99.90
9915;DHT22;4996;48.746;9.174;2024-03-25T01:07:22;6.50;99.90
9915;DHT22;4996;48.746;9.174;2024-03-25T01:09:48;6.60;99.90
9915;DHT22;4996;48.746;9.174;2024-03-25T01:12:13;6.50;99.90
9915;DHT22;4996;48.746;9.174;2024-03-25T01:14:39;6.50;99.90
9915;DHT22;4996;48.746;9.174;2024-03-25T01:17:04;6.40;99.90
9915;DHT22;4996;48.746;9.174;2024-03-25T01:19:30;6.40;99.90
9915;DHT22;4996;48.746;9.174;2024-03-25T01:21:55;6.30;99.90
9915;DHT22;4996;48.746;9.174;2024-03-25T01:24:21;6.30;99.90
9915;DHT22;4996;48.746;9.174;2024-03-25T01:26:46;6.30;99.90
9915;DHT22;4996;48.746;9.174;2024-03-25T01:29:12;6.30;99.90
9915;DHT22;4996;48.746;9.174;2024-03-25T01:31:38;6.30;99.90
9915;DHT22;4996;48.746;9.174;2024-03-25T01:34:03;6.30;99.90
9915;DHT22;4996;48.746;9.174;2024-03-25T01:36:29;6.30;99.90
9915;DHT22;4996;48.746;9.174;2024-03-25T01:38:54;6.20;99.90
9915;DHT22;4996;48.746;9.174;2024-03-25T01:41:21;6.30;99.90
9915;DHT22;4996;48.746;9.174;2024-03-25T01:43:50;6.40;99.90
9915;DHT22;4996;48.746;9.174;2024-03-25T01:46:17;6.10;99.90
9915;DHT22;4996;48.746;9.174;2024-03-25T01:48:44;6.00;99.90
9915;DHT22;4996;48.746;9.174;2024-03-25T01:51:12;6.10;99.90
9915;DHT22;4996;48.746;9.174;2024-03-25T01:53:39;5.90;99.90
9915;DHT22;4996;48.746;9.174;2024-03-25T01:56:05;5.90;99.90
9915;DHT22;4996;48.746;9.174;2024-03-25T01:58:30;6.00;99.90
9915;DHT22;4996;48.746;9.174;2024-03-25T02:00:58;6.10;99.90
9915;DHT22;4996;48.746;9.174;2024-03-25T02:03:27;6.00;99.90
9915;DHT22;4996;48.746;9.174;2024-03-25T02:05:59;6.10;99.90
9915;DHT22;4996;48.746;9.174;2024-03-25T02:08:26;6.10;99.90
9915;DHT22;4996;48.746;9.174;2024-03-25T02:10:54;6.00;99.90
9915;DHT22;4996;48.746;9.174;2024-03-25T02:13:21;6.00;99.90
9915;DHT22;4996;48.746;9.174;2024-03-25T02:15:47;6.00;99.90
9915;DHT22;4996;48.746;9.174;2024-03-25T02:18:16;6.10;99.90
9915;DHT22;4996;48.746;9.174;2024-03-25T02:20:41;6.10;99.90
9915;DHT22;4996;48.746;9.174;2024-03-25T02:23:07;6.10;99.90
9915;DHT22;4996;48.746;9.174;2024-03-25T02:25:35;6.20;99.90
9915;DHT22;4996;48.746;9.174;2024-03-25T02:28:03;6.20;99.90
9915;DHT22;4996;48.746;9.174;2024-03-25T02:30:29;6.30;99.90
9915;DHT22;4996;48.746;9.174;2024-03-25T02:32:54;6.30;99.90
9915;DHT22;4996;48.746;9.174;2024-03-25T02:35:21;6.30;99.90
9915;DHT22;4996;48.746;9.174;2024-03-25T02:37:47;6.30;99.90
9915;DHT22;4996;48.746;9.174;2024-03-25T02:40:14;6.30;99.90
9915;DHT22;4996;48.746;9.174;2024-03-25T02:42:40;6.30;99.90
9915;DHT22;4996;48.746;9.174;2024-03-25T02:45:06;6.30;99.90
9915;DHT22;4996;48.746;9.174;2024-03-25T02:47:31;6.30;99.90
9915;DHT22;4996;48.746;9.174;2024-03-25T02:49:57;6.30;99.90
9915;DHT22;4996;48.746;9.174;2024-03-25T02:52:22;6.40;99.90
9915;DHT22;4996;48.746;9.174;2024-03-25T02:54:48;6.40;99.90
9915;DHT22;4996;48.746;9.174;2024-03-25T02:57:13;6.30;99.90
9915;DHT22;4996;48.746;9.174;2024-03-25T02:59:39;6.30;99.90
9915;DHT22;4996;48.746;9.174;2024-03-25T03:02:05;6.40;99.90
9915;DHT22;4996;48.746;9.174;2024-03-25T03:04:30;6.40;99.90
9915;DHT22;4996;48.746;9.174;2024-03-25T03:06:56;6.50;99.90
9915;DHT22;4996;48.746;9.174;2024-03-25T03:09:22;6.50;99.90
9915;DHT22;4996;48.746;9.174;2024-03-25T03:11:48;6.50;99.90
9915;DHT22;4996;48.746;9.174;2024-03-25T03:14:14;6.60;99.90
9915;DHT22;4996;48.746;9.174;2024-03-25T03:16:39;6.60;99.90
9915;DHT22;4996;48.746;9.174;2024-03-25T03:19:05;6.60;99.90
9915;DHT22;4996;48.746;9.174;2024-03-25T03:21:30;6.70;99.90
9915;DHT22;4996;48.746;9.174;2024-03-25T03:23:56;6.70;99.90
9915;DHT22;4996;48.746;9.174;2024-03-25T03:26:22;6.70;99.90
9915;DHT22;4996;48.746;9.174;2024-03-25T03:28:55;6.60;99.90
9915;DHT22;4996;48.746;9.174;2024-03-25T03:31:20;6.60;99.90
9915;DHT22;4996;48.746;9.174;2024-03-25T03:33:49;6.50;99.90
9915;DHT22;4996;48.746;9.174;2024-03-25T03:36:19;6.50;99.90
9915;DHT22;4996;48.746;9.174;2024-03-25T03:38:45;6.50;99.90
9915;DHT22;4996;48.746;9.174;2024-03-25T03:41:11;6.50;99.90
9915;DHT22;4996;48.746;9.174;2024-03-25T03:43:37;6.50;99.90
9915;DHT22;4996;48.746;9.174;2024-03-25T03:46:03;6.40;99.90
9915;DHT22;4996;48.746;9.174;2024-03-25T03:48:29;6.40;99.90
9915;DHT22;4996;48.746;9.174;2024-03-25T03:50:55;6.40;99.90
9915;DHT22;4996;48.746;9.174;2024-03-25T03:53:20;6.40;99.90
9915;DHT22;4996;48.746;9.174;2024-03-25T03:55:56;6.40;99.90
9915;DHT22;4996;48.746;9.174;2024-03-25T03:58:22;6.30;99.90
9915;DHT22;4996;48.746;9.174;2024-03-25T04:00:48;6.30;99.90
9915;DHT22;4996;48.746;9.174;2024-03-25T04:03:14;6.20;99.90
9915;DHT22;4996;48.746;9.174;2024-03-25T04:05:39;6.30;99.90
9915;DHT22;4996;48.746;9.174;2024-03-25T04:08:05;6.30;99.90
9915;DHT22;4996;48.746;9.174;2024-03-25T04:10:31;6.20;99.90
9915;DHT22;4996;48.746;9.174;2024-03-25T04:12:56;6.30;99.90
9915;DHT22;4996;48.746;9.174;2024-03-25T04:15:22;6.30;99.90
9915;DHT22;4996;48.746;9.174;2024-03-25T04:17:48;6.20;99.90
9915;DHT22;4996;48.746;9.174;2024-03-25T04:20:15;6.20;99.90
9915;DHT22;4996;48.746;9.174;2024-03-25T04:22:42;6.20;99.90
9915;DHT22;4996;48.746;9.174;2024-03-25T04:25:09;6.20;99.90
9915;DHT22;4996;48.746;9.174;2024-03-25T04:27:40;6.00;99.90
9915;DHT22;4996;48.746;9.174;2024-03-25T04:30:07;6.00;99.90
9915;DHT22;4996;48.746;9.174;2024-03-25T04:32:33;6.10;99.90
9915;DHT22;4996;48.746;9.174;2024-03-25T04:34:59;6.00;99.90
9915;DHT22;4996;48.746;9.174;2024-03-25T04:37:25;5.90;99.90
9915;DHT22;4996;48.746;9.174;2024-03-25T04:39:51;5.90;99.90
9915;DHT22;4996;48.746;9.174;2024-03-25T04:42:16;5.90;99.90
9915;DHT22;4996;48.746;9.174;2024-03-25T04:44:41;5.90;99.90
9915;DHT22;4996;48.746;9.174;2024-03-25T04:47:07;6.00;99.90
9915;DHT22;4996;48.746;9.174;2024-03-25T04:49:32;5.90;99.90
9915;DHT22;4996;48.746;9.174;2024-03-25T04:51:58;5.90;99.90
9915;DHT22;4996;48.746;9.174;2024-03-25T04:54:23;5.90;99.90
9915;DHT22;4996;48.746;9.174;2024-03-25T04:56:49;5.80;99.90
9915;DHT22;4996;48.746;9.174;2024-03-25T04:59:14;5.80;99.90
9915;DHT22;4996;48.746;9.174;2024-03-25T05:01:40;5.80;99.90
9915;DHT22;4996;48.746;9.174;2024-03-25T05:04:05;5.90;99.90
9915;DHT22;4996;48.746;9.174;2024-03-25T05:06:34;6.00;99.90
9915;DHT22;4996;48.746;9.174;2024-03-25T05:09:00;6.00;99.90
9915;DHT22;4996;48.746;9.174;2024-03-25T05:11:25;6.00;99.90
9915;DHT22;4996;48.746;9.174;2024-03-25T05:13:51;6.00;99.90
9915;DHT22;4996;48.746;9.174;2024-03-25T05:16:16;6.00;99.90
9915;DHT22;4996;48.746;9.174;2024-03-25T05:18:42;6.00;99.90
9915;DHT22;4996;48.746;9.174;2024-03-25T05:21:07;5.90;99.90
9915;DHT22;4996;48.746;9.174;2024-03-25T05:23:33;5.90;99.90
9915;DHT22;4996;48.746;9.174;2024-03-25T05:25:58;5.90;99.90
9915;DHT22;4996;48.746;9.174;2024-03-25T05:28:24;5.90;99.90
9915;DHT22;4996;48.746;9.174;2024-03-25T05:30:50;5.80;99.90
9915;DHT22;4996;48.746;9.174;2024-03-25T05:33:15;5.80;99.90
9915;DHT22;4996;48.746;9.174;2024-03-25T05:35:41;5.80;99.90
9915;DHT22;4996;48.746;9.174;2024-03-25T05:38:07;5.70;99.90
9915;DHT22;4996;48.746;9.174;2024-03-25T05:40:32;5.80;99.90
9915;DHT22;4996;48.746;9.174;2024-03-25T05:42:58;5.80;99.90
9915;DHT22;4996;48.746;9.174;2024-03-25T05:45:23;5.80;99.90
9915;DHT22;4996;48.746;9.174;2024-03-25T05:47:52;5.90;99.90
9915;DHT22;4996;48.746;9.174;2024-03-25T05:50:18;5.90;99.90
9915;DHT22;4996;48.746;9.174;2024-03-25T05:52:43;5.90;99.90
9915;DHT22;4996;48.746;9.174;2024-03-25T05:55:09;6.00;99.90
9915;DHT22;4996;48.746;9.174;2024-03-25T05:57:37;5.90;99.90
9915;DHT22;4996;48.746;9.174;2024-03-25T06:00:03;6.00;99.90
9915;DHT22;4996;48.746;9.174;2024-03-25T06:02:29;6.10;99.90
9915;DHT22;4996;48.746;9.174;2024-03-25T06:04:55;6.10;99.90
9915;DHT22;4996;48.746;9.174;2024-03-25T06:07:22;6.00;99.90
9915;DHT22;4996;48.746;9.174;2024-03-25T06:09:47;6.00;99.90
9915;DHT22;4996;48.746;9.174;2024-03-25T06:12:13;6.00;99.90
9915;DHT22;4996;48.746;9.174;2024-03-25T06:14:38;5.90;99.90
9915;DHT22;4996;48.746;9.174;2024-03-25T06:17:04;6.00;99.90
9915;DHT22;4996;48.746;9.174;2024-03-25T06:19:30;5.90;99.90
9915;DHT22;4996;48.746;9.174;2024-03-25T06:21:55;5.90;99.90
9915;DHT22;4996;48.746;9.174;2024-03-25T06:24:21;6.00;99.90
9915;DHT22;4996;48.746;9.174;2024-03-25T06:26:46;6.20;99.90
9915;DHT22;4996;48.746;9.174;2024-03-25T06:29:12;6.20;99.90
9915;DHT22;4996;48.746;9.174;2024-03-25T06:31:37;6.30;99.90
9915;DHT22;4996;48.746;9.174;2024-03-25T06:34:21;6.30;99.90
9915;DHT22;4996;48.746;9.174;2024-03-25T06:36:51;6.60;99.90
9915;DHT22;4996;48.746;9.174;2024-03-25T06:39:16;6.40;99.90
9915;DHT22;4996;48.746;9.174;2024-03-25T06:41:42;6.50;99.90
9915;DHT22;4996;48.746;9.174;2024-03-25T06:44:08;6.50;99.90
9915;DHT22;4996;48.746;9.174;2024-03-25T06:46:33;6.50;99.90
9915;DHT22;4996;48.746;9.174;2024-03-25T06:48:59;6.60;99.90
9915;DHT22;4996;48.746;9.174;2024-03-25T06:51:25;6.60;99.90
9915;DHT22;4996;48.746;9.174;2024-03-25T06:53:50;6.60;99.90
9915;DHT22;4996;48.746;9.174;2024-03-25T06:56:16;6.70;99.90
9915;DHT22;4996;48.746;9.174;2024-03-25T06:58:42;6.70;99.90
9915;DHT22;4996;48.746;9.174;2024-03-25T07:01:09;6.70;99.90
9915;DHT22;4996;48.746;9.174;2024-03-25T07:03:37;7.10;99.90
9915;DHT22;4996;48.746;9.174;2024-03-25T07:06:03;6.80;99.90
9915;DHT22;4996;48.746;9.174;2024-03-25T07:08:28;6.80;99.90
9915;DHT22;4996;48.746;9.174;2024-03-25T07:10:55;6.80;99.90
9915;DHT22;4996;48.746;9.174;2024-03-25T07:13:21;6.90;99.90
9915;DHT22;4996;48.746;9.174;2024-03-25T07:15:46;7.00;99.90
9915;DHT22;4996;48.746;9.174;2024-03-25T07:18:12;7.20;99.90
9915;DHT22;4996;48.746;9.174;2024-03-25T07:20:42;7.30;99.90
9915;DHT22;4996;48.746;9.174;2024-03-25T07:23:08;7.30;99.90
9915;DHT22;4996;48.746;9.174;2024-03-25T07:25:34;7.40;99.90
9915;DHT22;4996;48.746;9.174;2024-03-25T07:28:00;7.60;99.90
9915;DHT22;4996;48.746;9.174;2024-03-25T07:30:25;7.90;99.90
9915;DHT22;4996;48.746;9.174;2024-03-25T07:32:55;7.90;99.90
9915;DHT22;4996;48.746;9.174;2024-03-25T07:35:20;8.00;99.90
9915;DHT22;4996;48.746;9.174;2024-03-25T07:37:46;8.20;99.90
9915;DHT22;4996;48.746;9.174;2024-03-25T07:40:12;8.20;99.90
9915;DHT22;4996;48.746;9.174;2024-03-25T07:42:38;8.20;99.90
9915;DHT22;4996;48.746;9.174;2024-03-25T07:45:04;8.30;99.90
9915;DHT22;4996;48.746;9.174;2024-03-25T07:47:32;8.40;99.90
9915;DHT22;4996;48.746;9.174;2024-03-25T07:49:59;8.40;99.90
9915;DHT22;4996;48.746;9.174;2024-03-25T07:52:25;8.40;99.90
9915;DHT22;4996;48.746;9.174;2024-03-25T07:54:50;8.30;99.90
9915;DHT22;4996;48.746;9.174;2024-03-25T07:57:17;8.30;99.90
9915;DHT22;4996;48.746;9.174;2024-03-25T07:59:42;8.40;99.90
9915;DHT22;4996;48.746;9.174;2024-03-25T08:02:08;8.50;99.90
9915;DHT22;4996;48.746;9.174;2024-03-25T08:04:33;8.70;99.90
9915;DHT22;4996;48.746;9.174;2024-03-25T08:06:59;9.10;99.90
9915;DHT22;4996;48.746;9.174;2024-03-25T08:09:24;9.40;99.90
9915;DHT22;4996;48.746;9.174;2024-03-25T08:11:50;9.70;99.90
9915;DHT22;4996;48.746;9.174;2024-03-25T08:14:15;10.00;99.90
9915;DHT22;4996;48.746;9.174;2024-03-25T08:16:41;10.40;99.90
9915;DHT22;4996;48.746;9.174;2024-03-25T08:19:06;10.10;99.90
9915;DHT22;4996;48.746;9.174;2024-03-25T08:21:32;9.80;99.90
9915;DHT22;4996;48.746;9.174;2024-03-25T08:23:57;9.50;99.90
9915;DHT22;4996;48.746;9.174;2024-03-25T08:26:23;9.30;99.90
9915;DHT22;4996;48.746;9.174;2024-03-25T08:28:48;9.20;99.90
9915;DHT22;4996;48.746;9.174;2024-03-25T08:31:14;9.40;99.90
9915;DHT22;4996;48.746;9.174;2024-03-25T08:33:40;9.30;99.90
9915;DHT22;4996;48.746;9.174;2024-03-25T08:36:06;9.30;99.90
9915;DHT22;4996;48.746;9.174;2024-03-25T08:38:31;9.60;99.90
9915;DHT22;4996;48.746;9.174;2024-03-25T08:40:57;9.70;99.90
9915;DHT22;4996;48.746;9.174;2024-03-25T08:43:22;9.80;99.90
9915;DHT22;4996;48.746;9.174;2024-03-25T08:45:48;9.90;99.90
9915;DHT22;4996;48.746;9.174;2024-03-25T08:48:13;9.80;99.90
9915;DHT22;4996;48.746;9.174;2024-03-25T08:50:39;9.80;99.90
9915;DHT22;4996;48.746;9.174;2024-03-25T08:53:04;9.60;99.90
9915;DHT22;4996;48.746;9.174;2024-03-25T08:55:30;9.40;99.90
9915;DHT22;4996;48.746;9.174;2024-03-25T08:57:56;9.30;99.90
9915;DHT22;4996;48.746;9.174;2024-03-25T09:00:27;9.20;99.90
9915;DHT22;4996;48.746;9.174;2024-03-25T09:02:53;9.30;99.90
9915;DHT22;4996;48.746;9.174;2024-03-25T09:05:18;9.40;99.90
9915;DHT22;4996;48.746;9.174;2024-03-25T09:07:45;9.50;99.90
9915;DHT22;4996;48.746;9.174;2024-03-25T09:10:15;9.50;99.90
9915;DHT22;4996;48.746;9.174;2024-03-25T09:12:59;9.50;99.90
9915;DHT22;4996;48.746;9.174;2024-03-25T09:15:24;9.60;99.90
9915;DHT22;4996;48.746;9.174;2024-03-25T09:17:50;9.90;99.90
9915;DHT22;4996;48.746;9.174;2024-03-25T09:20:15;10.10;99.90
9915;DHT22;4996;48.746;9.174;2024-03-25T09:22:46;10.50;99.10
9915;DHT22;4996;48.746;9.174;2024-03-25T09:25:12;11.20;97.00
9915;DHT22;4996;48.746;9.174;2024-03-25T09:27:38;11.60;95.50
9915;DHT22;4996;48.746;9.174;2024-03-25T09:30:05;11.50;95.80
9915;DHT22;4996;48.746;9.174;2024-03-25T09:32:31;12.20;93.40
9915;DHT22;4996;48.746;9.174;2024-03-25T09:34:59;12.00;91.30
9915;DHT22;4996;48.746;9.174;2024-03-25T09:37:25;12.00;91.40
9915;DHT22;4996;48.746;9.174;2024-03-25T09:39:50;12.70;91.70
9915;DHT22;4996;48.746;9.174;2024-03-25T09:42:25;12.80;90.60
9915;DHT22;4996;48.746;9.174;2024-03-25T09:44:52;12.30;90.90
9915;DHT22;4996;48.746;9.174;2024-03-25T09:47:18;12.70;91.30
9915;DHT22;4996;48.746;9.174;2024-03-25T09:49:45;13.00;91.60
9915;DHT22;4996;48.746;9.174;2024-03-25T09:52:12;13.40;90.70
9915;DHT22;4996;48.746;9.174;2024-03-25T09:54:37;13.70;86.80
9915;DHT22;4996;48.746;9.174;2024-03-25T09:57:03;13.40;87.30
9915;DHT22;4996;48.746;9.174;2024-03-25T09:59:30;13.20;86.50
9915;DHT22;4996;48.746;9.174;2024-03-25T10:01:56;13.10;84.90
9915;DHT22;4996;48.746;9.174;2024-03-25T10:04:23;12.80;84.90
9915;DHT22;4996;48.746;9.174;2024-03-25T10:06:49;12.50;85.60
9915;DHT22;4996;48.746;9.174;2024-03-25T10:09:22;11.80;86.10
9915;DHT22;4996;48.746;9.174;2024-03-25T10:11:49;11.50;86.50
9915;DHT22;4996;48.746;9.174;2024-03-25T10:14:18;11.50;85.80
9915;DHT22;4996;48.746;9.174;2024-03-25T10:16:48;11.40;86.30
9915;DHT22;4996;48.746;9.174;2024-03-25T10:19:14;11.50;87.20
9915;DHT22;4996;48.746;9.174;2024-03-25T10:21:40;11.40;87.10
9915;DHT22;4996;48.746;9.174;2024-03-25T10:24:05;11.30;88.10
9915;DHT22;4996;48.746;9.174;2024-03-25T10:26:33;11.40;87.00
9915;DHT22;4996;48.746;9.174;2024-03-25T10:29:04;11.30;86.70
9915;DHT22;4996;48.746;9.174;2024-03-25T10:31:31;11.50;86.90
9915;DHT22;4996;48.746;9.174;2024-03-25T10:33:57;11.70;86.90
9915;DHT22;4996;48.746;9.174;2024-03-25T10:36:24;11.90;86.30
9915;DHT22;4996;48.746;9.174;2024-03-25T10:38:53;11.80;84.60
9915;DHT22;4996;48.746;9.174;2024-03-25T10:41:20;11.50;85.30
9915;DHT22;4996;48.746;9.174;2024-03-25T10:43:47;11.50;85.40
9915;DHT22;4996;48.746;9.174;2024-03-25T10:46:18;11.30;86.00
9915;DHT22;4996;48.746;9.174;2024-03-25T10:48:52;10.90;86.90
9915;DHT22;4996;48.746;9.174;2024-03-25T10:51:21;11.10;86.40
9915;DHT22;4996;48.746;9.174;2024-03-25T10:53:49;11.30;86.80
9915;DHT22;4996;48.746;9.174;2024-03-25T10:56:22;11.40;88.00
9915;DHT22;4996;48.746;9.174;2024-03-25T10:58:48;11.30;85.40
9915;DHT22;4996;48.746;9.174;2024-03-25T11:01:16;11.30;85.50
9915;DHT22;4996;48.746;9.174;2024-03-25T11:03:42;11.10;87.10
9915;DHT22;4996;48.746;9.174;2024-03-25T11:06:07;11.10;87.50
9915;DHT22;4996;48.746;9.174;2024-03-25T11:08:33;11.10;89.60
9915;DHT22;4996;48.746;9.174;2024-03-25T11:11:00;11.20;90.00
9915;DHT22;4996;48.746;9.174;2024-03-25T11:13:27;11.40;88.00
9915;DHT22;4996;48.746;9.174;2024-03-25T11:15:52;11.30;86.40
9915;DHT22;4996;48.746;9.174;2024-03-25T11:18:22;11.30;87.50
9915;DHT22;4996;48.746;9.174;2024-03-25T11:21:12;11.70;88.10
9915;DHT22;4996;48.746;9.174;2024-03-25T11:23:40;11.20;89.00
9915;DHT22;4996;48.746;9.174;2024-03-25T11:26:24;11.40;89.50
9915;DHT22;4996;48.746;9.174;2024-03-25T11:28:50;11.80;88.70
9915;DHT22;4996;48.746;9.174;2024-03-25T11:31:20;12.00;88.00
9915;DHT22;4996;48.746;9.174;2024-03-25T11:33:47;11.90;87.10
9915;DHT22;4996;48.746;9.174;2024-03-25T11:36:12;12.20;86.20
9915;DHT22;4996;48.746;9.174;2024-03-25T11:38:38;12.80;85.80
9915;DHT22;4996;48.746;9.174;2024-03-25T11:41:07;13.00;84.00
9915;DHT22;4996;48.746;9.174;2024-03-25T11:43:33;13.10;84.20
9915;DHT22;4996;48.746;9.174;2024-03-25T11:45:58;13.50;83.00
9915;DHT22;4996;48.746;9.174;2024-03-25T11:48:24;13.60;80.90
9915;DHT22;4996;48.746;9.174;2024-03-25T11:50:49;14.20;80.10
9915;DHT22;4996;48.746;9.174;2024-03-25T11:53:15;15.40;77.30
9915;DHT22;4996;48.746;9.174;2024-03-25T11:55:41;15.20;76.30
9915;DHT22;4996;48.746;9.174;2024-03-25T11:58:11;15.40;74.40
9915;DHT22;4996;48.746;9.174;2024-03-25T12:00:43;15.80;72.10
9915;DHT22;4996;48.746;9.174;2024-03-25T12:03:10;16.50;69.80
9915;DHT22;4996;48.746;9.174;2024-03-25T12:05:37;17.10;66.80
9915;DHT22;4996;48.746;9.174;2024-03-25T12:08:04;18.00;65.70
9915;DHT22;4996;48.746;9.174;2024-03-25T12:10:31;18.70;64.90
9915;DHT22;4996;48.746;9.174;2024-03-25T12:13:15;19.50;64.70
9915;DHT22;4996;48.746;9.174;2024-03-25T12:15:41;20.70;63.30
9915;DHT22;4996;48.746;9.174;2024-03-25T12:18:06;20.70;60.40
9915;DHT22;4996;48.746;9.174;2024-03-25T12:20:32;20.90;58.60
9915;DHT22;4996;48.746;9.174;2024-03-25T12:22:57;21.00;57.10
9915;DHT22;4996;48.746;9.174;2024-03-25T12:25:24;22.20;58.10
9915;DHT22;4996;48.746;9.174;2024-03-25T12:27:50;21.80;56.00
9915;DHT22;4996;48.746;9.174;2024-03-25T12:30:15;20.00;55.00
9915;DHT22;4996;48.746;9.174;2024-03-25T12:32:43;20.00;56.80
9915;DHT22;4996;48.746;9.174;2024-03-25T12:35:13;19.60;56.40
9915;DHT22;4996;48.746;9.174;2024-03-25T12:37:41;19.90;62.20
9915;DHT22;4996;48.746;9.174;2024-03-25T12:40:09;19.50;58.30
9915;DHT22;4996;48.746;9.174;2024-03-25T12:42:35;18.30;55.80
9915;DHT22;4996;48.746;9.174;2024-03-25T12:45:01;18.60;58.70
9915;DHT22;4996;48.746;9.174;2024-03-25T12:47:28;17.70;55.30
9915;DHT22;4996;48.746;9.174;2024-03-25T12:49:54;18.30;57.90
9915;DHT22;4996;48.746;9.174;2024-03-25T12:52:19;18.70;56.50
9915;DHT22;4996;48.746;9.174;2024-03-25T12:54:45;18.50;55.60
9915;DHT22;4996;48.746;9.174;2024-03-25T12:57:13;18.60;56.40
9915;DHT22;4996;48.746;9.174;2024-03-25T12:59:39;18.60;54.30
9915;DHT22;4996;48.746;9.174;2024-03-25T13:02:04;17.80;55.20
9915;DHT22;4996;48.746;9.174;2024-03-25T13:04:30;17.30;54.30
9915;DHT22;4996;48.746;9.174;2024-03-25T13:06:55;16.80;53.80
9915;DHT22;4996;48.746;9.174;2024-03-25T13:09:21;16.30;55.40
9915;DHT22;4996;48.746;9.174;2024-03-25T13:11:47;15.90;54.70
9915;DHT22;4996;48.746;9.174;2024-03-25T13:14:13;15.40;54.90
9915;DHT22;4996;48.746;9.174;2024-03-25T13:16:39;15.30;57.40
9915;DHT22;4996;48.746;9.174;2024-03-25T13:19:05;15.20;56.50
9915;DHT22;4996;48.746;9.174;2024-03-25T13:21:31;15.00;58.40
9915;DHT22;4996;48.746;9.174;2024-03-25T13:23:57;14.70;58.90
9915;DHT22;4996;48.746;9.174;2024-03-25T13:26:22;14.50;59.50
9915;DHT22;4996;48.746;9.174;2024-03-25T13:28:48;14.40;58.30
9915;DHT22;4996;48.746;9.174;2024-03-25T13:31:13;14.50;57.60
9915;DHT22;4996;48.746;9.174;2024-03-25T13:33:39;14.20;58.10
9915;DHT22;4996;48.746;9.174;2024-03-25T13:36:06;13.50;58.50
9915;DHT22;4996;48.746;9.174;2024-03-25T13:38:32;13.70;58.90
9915;DHT22;4996;48.746;9.174;2024-03-25T13:41:01;13.70;59.70
9915;DHT22;4996;48.746;9.174;2024-03-25T13:43:27;13.90;60.10
9915;DHT22;4996;48.746;9.174;2024-03-25T13:45:52;13.40;59.30
9915;DHT22;4996;48.746;9.174;2024-03-25T13:48:18;13.00;59.80
9915;DHT22;4996;48.746;9.174;2024-03-25T13:50:43;12.90;60.80
9915;DHT22;4996;48.746;9.174;2024-03-25T13:53:09;13.10;62.00
9915;DHT22;4996;48.746;9.174;2024-03-25T13:55:35;13.20;60.20
9915;DHT22;4996;48.746;9.174;2024-03-25T13:58:01;13.20;59.70
9915;DHT22;4996;48.746;9.174;2024-03-25T14:00:26;13.10;62.30
9915;DHT22;4996;48.746;9.174;2024-03-25T14:02:54;13.00;60.70
9915;DHT22;4996;48.746;9.174;2024-03-25T14:05:20;12.70;59.50
9915;DHT22;4996;48.746;9.174;2024-03-25T14:07:46;12.90;62.70
9915;DHT22;4996;48.746;9.174;2024-03-25T14:10:12;12.80;58.80
9915;DHT22;4996;48.746;9.174;2024-03-25T14:12:37;12.80;59.40
9915;DHT22;4996;48.746;9.174;2024-03-25T14:15:03;12.90;58.30
9915;DHT22;4996;48.746;9.174;2024-03-25T14:17:29;13.10;58.80
9915;DHT22;4996;48.746;9.174;2024-03-25T14:19:56;13.20;58.90
9915;DHT22;4996;48.746;9.174;2024-03-25T14:22:22;13.20;59.50
9915;DHT22;4996;48.746;9.174;2024-03-25T14:24:48;13.20;58.80
9915;DHT22;4996;48.746;9.174;2024-03-25T14:27:14;13.30;59.10
9915;DHT22;4996;48.746;9.174;2024-03-25T14:29:40;13.40;59.70
9915;DHT22;4996;48.746;9.174;2024-03-25T14:32:06;12.90;59.70
9915;DHT22;4996;48.746;9.174;2024-03-25T14:34:31;13.00;60.20
9915;DHT22;4996;48.746;9.174;2024-03-25T14:36:57;13.10;60.50
9915;DHT22;4996;48.746;9.174;2024-03-25T14:39:23;13.10;60.30
9915;DHT22;4996;48.746;9.174;2024-03-25T14:41:50;13.20;60.20
9915;DHT22;4996;48.746;9.174;2024-03-25T14:44:15;12.90;59.90
9915;DHT22;4996;48.746;9.174;2024-03-25T14:46:41;13.00;61.60
9915;DHT22;4996;48.746;9.174;2024-03-25T14:49:06;13.00;61.20
9915;DHT22;4996;48.746;9.174;2024-03-25T14:51:32;13.00;61.90
9915;DHT22;4996;48.746;9.174;2024-03-25T14:53:57;12.90;62.60
9915;DHT22;4996;48.746;9.174;2024-03-25T14:56:23;13.10;61.80
9915;DHT22;4996;48.746;9.174;2024-03-25T14:58:49;13.10;62.60
9915;DHT22;4996;48.746;9.174;2024-03-25T15:01:14;13.20;61.90
9915;DHT22;4996;48.746;9.174;2024-03-25T15:03:40;13.40;62.80
9915;DHT22;4996;48.746;9.174;2024-03-25T15:06:05;13.20;61.70
9915;DHT22;4996;48.746;9.174;2024-03-25T15:08:31;13.10;61.00
9915;DHT22;4996;48.746;9.174;2024-03-25T15:10:57;13.10;61.10
9915;DHT22;4996;48.746;9.174;2024-03-25T15:13:22;13.10;62.00
9915;DHT22;4996;48.746;9.174;2024-03-25T15:15:48;12.90;60.40
9915;DHT22;4996;48.746;9.174;2024-03-25T15:18:13;13.00;60.00
9915;DHT22;4996;48.746;9.174;2024-03-25T15:20:39;13.00;61.10
9915;DHT22;4996;48.746;9.174;2024-03-25T15:23:04;12.80;60.50
9915;DHT22;4996;48.746;9.174;2024-03-25T15:25:31;12.80;60.00
9915;DHT22;4996;48.746;9.174;2024-03-25T15:27:57;12.90;61.90
9915;DHT22;4996;48.746;9.174;2024-03-25T15:30:23;12.80;60.10
9915;DHT22;4996;48.746;9.174;2024-03-25T15:32:49;12.80;60.90
9915;DHT22;4996;48.746;9.174;2024-03-25T15:35:14;12.80;59.90
9915;DHT22;4996;48.746;9.174;2024-03-25T15:37:40;12.70;59.70
9915;DHT22;4996;48.746;9.174;2024-03-25T15:40:06;12.60;60.10
9915;DHT22;4996;48.746;9.174;2024-03-25T15:42:34;12.50;61.90
9915;DHT22;4996;48.746;9.174;2024-03-25T15:45:00;12.50;61.20
9915;DHT22;4996;48.746;9.174;2024-03-25T15:47:26;12.50;61.30
9915;DHT22;4996;48.746;9.174;2024-03-25T15:49:51;12.60;61.60
9915;DHT22;4996;48.746;9.174;2024-03-25T15:52:17;12.50;60.60
9915;DHT22;4996;48.746;9.174;2024-03-25T15:54:43;12.60;60.90
9915;DHT22;4996;48.746;9.174;2024-03-25T15:57:08;12.60;61.80
9915;DHT22;4996;48.746;9.174;2024-03-25T15:59:34;12.70;60.80
9915;DHT22;4996;48.746;9.174;2024-03-25T16:01:59;12.60;59.70
9915;DHT22;4996;48.746;9.174;2024-03-25T16:04:25;12.50;60.10
9915;DHT22;4996;48.746;9.174;2024-03-25T16:06:50;12.70;60.90